To NAV CANADA Home Page Login to a new session Search on AWWS site Feedback and Comments Disclaimer Vers la page française équivalente Tips FAQ What's new on the site To the Forecasts and Observations / NOTAM section To "File a Flight Plan" website Publications and other links Update of the User's profile FIC Telephone Numbers My Weather Data Folder Route Weather Data Regional Weather Data Local Weather Data To the Forecasts and Observations / NOTAM section
Request Generated 01/21/2017 at 02:04:59 UTC . Weather information available at that time is displayed.

METAR/TAF

LLOYDMINSTER/AB    (show WxCam)

METAR CYLL 210200Z 33004KT 15SM BKN140 M03/M03 A2936 RMK AC7 SLP979=
METAR CYLL 210100Z 31004KT 15SM BKN170 M02/M03 A2936 RMK AC7 SLP978=
METAR CYLL 210000Z 34004KT 15SM BKN170 M01/M02 A2935 RMK AC7 SLP975=

TAF CYLL 202348Z 2100/2112 34004KT P6SM BKN170
FM210700 32005KT 6SM BR BKN170 TEMPO 2108/2112 1/2SM FZFG VV004
RMK NXT FCST BY 210600Z=
Your time UTC time
Weather data provided by Environment Canada and NAV CANADA